createdAt,value
2022-11-03T00:02:40.217Z,13.15
2022-11-03T00:06:01.533Z,13.04
2022-11-03T00:09:07.284Z,13.07
2022-11-03T00:12:09.832Z,13.03
2022-11-03T00:15:12.047Z,12.84
2022-11-03T00:18:14.619Z,12.88
2022-11-03T00:21:17.309Z,12.84
2022-11-03T00:24:19.880Z,12.74
2022-11-03T00:27:22.061Z,12.72
2022-11-03T00:30:24.665Z,12.68
2022-11-03T00:33:27.847Z,12.65
2022-11-03T00:36:33.309Z,12.52
2022-11-03T00:39:35.536Z,12.60
2022-11-03T00:42:39.103Z,12.46
2022-11-03T00:45:41.561Z,12.53
2022-11-03T00:48:44.730Z,12.51
2022-11-03T00:51:46.966Z,12.39
2022-11-03T00:54:54.261Z,12.48
2022-11-03T00:57:57.643Z,12.38
2022-11-03T01:01:04.951Z,12.48
2022-11-03T01:04:26.666Z,12.48
2022-11-03T01:07:29.170Z,12.50
2022-11-03T01:10:31.401Z,12.53
2022-11-03T01:13:34.045Z,12.54
2022-11-03T01:16:36.459Z,12.50
2022-11-03T01:19:39.035Z,12.47
2022-11-03T01:22:41.248Z,12.32
2022-11-03T01:25:43.776Z,12.28
2022-11-03T01:28:47.599Z,12.35
2022-11-03T01:31:50.186Z,12.26
2022-11-03T01:34:53.442Z,12.34
2022-11-03T01:37:56.663Z,12.54
2022-11-03T01:40:59.506Z,12.61
2022-11-03T01:44:07.975Z,12.54
2022-11-03T01:47:32.738Z,12.70
2022-11-03T01:50:35.540Z,12.59
2022-11-03T01:53:42.523Z,12.69
2022-11-03T01:56:46.942Z,12.56
2022-11-03T01:59:50.046Z,12.67
2022-11-03T02:02:54.393Z,12.64
2022-11-03T02:05:57.132Z,12.60
2022-11-03T02:09:02.828Z,12.53
2022-11-03T02:12:07.105Z,12.50
2022-11-03T02:15:12.494Z,12.46
2022-11-03T02:18:18.355Z,12.41
2022-11-03T02:21:31.289Z,12.22
2022-11-03T02:24:54.307Z,12.27
2022-11-03T02:27:56.918Z,12.20
2022-11-03T02:31:17.948Z,12.15
2022-11-03T02:34:40.587Z,12.10
2022-11-03T02:37:48.955Z,11.94
2022-11-03T02:40:55.600Z,12.02
2022-11-03T02:43:58.960Z,11.99
2022-11-03T02:47:05.962Z,11.96
2022-11-03T02:50:10.554Z,11.99
2022-11-03T02:53:14.379Z,11.97
2022-11-03T02:56:24.785Z,12.00
2022-11-03T02:59:35.019Z,11.89
2022-11-03T03:03:05.274Z,11.98
2022-11-03T03:06:12.156Z,11.96
2022-11-03T03:09:25.841Z,12.03
2022-11-03T03:12:28.692Z,12.06
2022-11-03T03:15:42.402Z,11.93
2022-11-03T03:19:35.424Z,12.03
2022-11-03T03:22:46.308Z,11.96
2022-11-03T03:26:07.782Z,11.76
2022-11-03T03:29:25.012Z,11.65
2022-11-03T03:32:30.840Z,11.55
2022-11-03T03:35:36.634Z,11.46
2022-11-03T03:38:44.540Z,11.45
2022-11-03T03:41:48.503Z,11.29
2022-11-03T03:44:52.844Z,11.35
2022-11-03T03:47:57.777Z,11.35
2022-11-03T03:51:02.048Z,11.30
2022-11-03T03:54:04.585Z,11.21
2022-11-03T03:57:10.819Z,11.19
2022-11-03T04:00:16.054Z,11.23
2022-11-03T04:03:20.923Z,11.21
2022-11-03T04:06:23.152Z,11.10
2022-11-03T04:09:25.771Z,11.13
2022-11-03T04:12:46.604Z,11.14
2022-11-03T04:15:52.259Z,11.14
2022-11-03T04:19:12.935Z,11.11
2022-11-03T04:22:18.057Z,11.06
2022-11-03T04:25:20.292Z,10.97
2022-11-03T04:28:22.894Z,10.94
2022-11-03T04:31:26.686Z,11.01
2022-11-03T04:34:29.186Z,10.85
2022-11-03T04:37:31.429Z,10.94
2022-11-03T04:40:34.065Z,10.88
2022-11-03T04:43:38.624Z,10.85
2022-11-03T04:46:41.308Z,10.69
2022-11-03T04:49:44.853Z,10.60
2022-11-03T04:52:58.412Z,10.75
2022-11-03T04:56:07.035Z,10.72
2022-11-03T04:59:14.634Z,10.78
2022-11-03T05:02:20.222Z,10.74
2022-11-03T05:05:25.556Z,10.68
2022-11-03T05:08:27.799Z,10.61
2022-11-03T05:11:39.983Z,10.58
2022-11-03T05:14:42.283Z,10.57
2022-11-03T05:17:44.829Z,10.45
2022-11-03T05:21:01.438Z,10.55
2022-11-03T05:24:11.648Z,10.57
2022-11-03T05:27:21.569Z,10.56
2022-11-03T05:30:24.632Z,10.53
2022-11-03T05:33:29.340Z,10.63
2022-11-03T05:36:33.363Z,10.62
2022-11-03T05:39:43.333Z,10.59
2022-11-03T05:42:47.047Z,10.47
2022-11-03T05:45:52.662Z,10.41
2022-11-03T05:48:55.493Z,10.53
2022-11-03T05:51:57.669Z,10.57
2022-11-03T05:55:02.054Z,10.59
2022-11-03T05:58:40.905Z,10.60
2022-11-03T06:01:43.785Z,10.60
2022-11-03T06:04:46.348Z,10.60
2022-11-03T06:07:50.776Z,10.64
2022-11-03T06:10:55.719Z,10.62
2022-11-03T06:13:58.945Z,10.60
2022-11-03T06:17:07.343Z,10.59
2022-11-03T06:20:18.405Z,10.62
2022-11-03T06:23:21.538Z,10.59
2022-11-03T06:26:27.142Z,10.63
2022-11-03T06:29:33.572Z,10.55
2022-11-03T06:32:35.806Z,10.69
2022-11-03T06:35:38.362Z,10.71
2022-11-03T06:38:40.625Z,10.79
2022-11-03T06:41:43.137Z,10.84
2022-11-03T06:44:48.271Z,10.76
2022-11-03T06:47:53.318Z,10.99
2022-11-03T06:50:58.271Z,11.02
2022-11-03T06:54:01.563Z,11.09
2022-11-03T06:57:12.504Z,11.18
2022-11-03T07:00:34.181Z,11.16
2022-11-03T07:03:38.087Z,11.41
2022-11-03T07:06:42.946Z,11.49
2022-11-03T07:09:45.153Z,11.60
2022-11-03T07:12:47.670Z,11.67
2022-11-03T07:15:50.382Z,11.82
2022-11-03T07:18:52.935Z,11.80
2022-11-03T07:21:58.939Z,11.81
2022-11-03T07:25:04.153Z,11.71
2022-11-03T07:28:06.630Z,11.87
2022-11-03T07:31:17.161Z,11.87
2022-11-03T07:34:23.758Z,12.09
2022-11-03T07:37:26.321Z,12.16
2022-11-03T07:40:31.853Z,12.21
2022-11-03T07:43:35.996Z,12.26
2022-11-03T07:46:38.353Z,12.32
2022-11-03T07:49:41.607Z,12.26
2022-11-03T07:52:43.942Z,12.33
2022-11-03T07:55:47.230Z,12.33
2022-11-03T07:58:54.217Z,12.21
2022-11-03T08:01:58.581Z,12.21
2022-11-03T08:05:02.026Z,12.18
2022-11-03T08:08:04.722Z,12.14
2022-11-03T08:11:07.590Z,11.99
2022-11-03T08:14:10.594Z,12.15
2022-11-03T08:17:14.641Z,11.95
2022-11-03T08:20:16.958Z,12.09
2022-11-03T08:23:25.572Z,11.93
2022-11-03T08:26:28.808Z,12.02
2022-11-03T08:29:31.363Z,12.06
2022-11-03T08:32:33.767Z,11.84
2022-11-03T08:35:36.346Z,12.08
2022-11-03T08:38:38.897Z,12.09
2022-11-03T08:41:41.499Z,12.13
2022-11-03T08:44:43.716Z,11.94
2022-11-03T08:47:46.537Z,12.03
2022-11-03T08:50:50.477Z,12.05
2022-11-03T08:53:55.601Z,12.08
2022-11-03T08:56:57.823Z,12.20
2022-11-03T09:00:00.435Z,11.98
2022-11-03T09:03:02.870Z,12.19
2022-11-03T09:06:05.822Z,12.24
2022-11-03T09:12:30.606Z,12.29
2022-11-03T09:15:33.047Z,12.18
2022-11-03T09:18:35.705Z,12.20
2022-11-03T09:21:37.945Z,12.23
2022-11-03T09:24:40.528Z,12.25
2022-11-03T09:27:42.808Z,12.22
2022-11-03T09:30:45.324Z,12.22
2022-11-03T09:33:47.579Z,12.29
2022-11-03T09:36:53.227Z,12.26
2022-11-03T09:39:55.755Z,12.31
2022-11-03T09:42:58.341Z,12.29
2022-11-03T09:46:00.580Z,12.37
2022-11-03T09:49:05.055Z,12.38
2022-11-03T09:52:07.356Z,12.45
2022-11-03T09:55:19.031Z,12.41
2022-11-03T09:58:21.306Z,12.11
2022-11-03T10:01:24.098Z,12.24
2022-11-03T10:04:28.920Z,12.29
2022-11-03T10:07:31.332Z,12.31
2022-11-03T10:10:35.643Z,12.19
2022-11-03T10:13:41.155Z,12.15
2022-11-03T10:16:53.399Z,12.22
2022-11-03T10:19:58.156Z,12.16
2022-11-03T10:23:00.682Z,12.20
2022-11-03T10:26:11.701Z,12.13
2022-11-03T10:29:35.920Z,12.09
2022-11-03T10:32:41.554Z,12.27
2022-11-03T10:35:44.207Z,12.08
2022-11-03T10:38:47.978Z,12.18
2022-11-03T10:41:58.965Z,12.16
2022-11-03T10:45:16.553Z,12.15
2022-11-03T10:48:19.049Z,12.29
2022-11-03T10:51:21.311Z,12.18
2022-11-03T10:54:24.693Z,12.26
2022-11-03T10:57:28.067Z,12.15
2022-11-03T11:00:30.590Z,12.16
2022-11-03T11:03:35.005Z,12.13
2022-11-03T11:06:40.365Z,11.97
2022-11-03T11:09:42.708Z,12.04
2022-11-03T11:13:12.694Z,12.08
2022-11-03T11:16:48.587Z,12.15
2022-11-03T11:20:22.676Z,12.26
2022-11-03T11:23:27.910Z,12.19
2022-11-03T11:26:34.839Z,12.08
2022-11-03T11:29:37.114Z,12.14
2022-11-03T11:32:39.538Z,12.19
2022-11-03T11:35:41.683Z,12.27
2022-11-03T11:38:52.312Z,12.30
2022-11-03T11:42:17.909Z,12.36
2022-11-03T11:45:58.877Z,12.38
2022-11-03T11:49:03.817Z,12.51
2022-11-03T11:52:10.499Z,12.52
2022-11-03T11:55:48.133Z,12.57
2022-11-03T11:58:53.740Z,12.64
2022-11-03T12:01:57.603Z,12.49
2022-11-03T12:05:04.860Z,12.48
2022-11-03T12:08:21.202Z,12.34
2022-11-03T12:11:55.480Z,12.45
2022-11-03T12:14:58.559Z,12.41
2022-11-03T12:18:39.167Z,12.49
2022-11-03T12:21:48.746Z,12.58
2022-11-03T12:24:54.875Z,12.56
2022-11-03T12:27:57.107Z,12.56
2022-11-03T12:34:07.064Z,12.60
2022-11-03T12:37:09.621Z,12.61
2022-11-03T12:40:13.978Z,12.52
2022-11-03T12:43:16.780Z,12.60
2022-11-03T12:46:20.730Z,12.56
2022-11-03T12:49:23.322Z,12.49
2022-11-03T12:52:25.999Z,12.46
2022-11-03T12:58:30.751Z,12.58
2022-11-03T13:01:33.804Z,12.48
2022-11-03T13:04:36.641Z,12.40
2022-11-03T13:07:39.234Z,12.52
2022-11-03T13:10:41.496Z,12.57
2022-11-03T13:13:43.978Z,12.54
2022-11-03T13:16:46.263Z,12.46
2022-11-03T13:19:54.285Z,12.42
2022-11-03T13:22:57.038Z,12.39
2022-11-03T13:25:59.877Z,12.41
2022-11-03T13:29:02.220Z,12.21
2022-11-03T13:32:05.343Z,12.33
2022-11-03T13:35:13.292Z,12.24
2022-11-03T13:38:16.761Z,12.33
2022-11-03T13:41:18.966Z,12.24
2022-11-03T13:44:21.539Z,12.23
2022-11-03T13:47:34.347Z,12.15
2022-11-03T13:50:46.887Z,12.28
2022-11-03T14:00:34.880Z,12.03
2022-11-03T14:06:59.537Z,12.23
2022-11-03T14:10:04.002Z,12.12
2022-11-03T14:13:07.289Z,12.07
2022-11-03T14:16:10.151Z,12.02
2022-11-03T14:19:12.451Z,12.01
2022-11-03T14:22:15.006Z,12.12
2022-11-03T14:25:20.110Z,12.22
2022-11-03T14:28:26.120Z,12.18
2022-11-03T14:31:28.663Z,12.01
2022-11-03T14:34:31.178Z,12.26
2022-11-03T14:37:33.534Z,12.20
2022-11-03T14:40:54.460Z,12.34
2022-11-03T14:43:56.682Z,12.30
2022-11-03T14:47:01.514Z,12.28
2022-11-03T14:50:04.104Z,12.09
2022-11-03T14:53:06.744Z,12.10
2022-11-03T14:56:09.193Z,12.05
2022-11-03T14:59:11.716Z,12.16
2022-11-03T15:02:14.093Z,12.11
2022-11-03T15:05:35.414Z,11.88
2022-11-03T15:08:38.115Z,11.88
2022-11-03T15:11:41.685Z,11.77
2022-11-03T15:14:44.186Z,11.68
2022-11-03T15:17:47.000Z,11.62
2022-11-03T15:20:49.339Z,11.59
2022-11-03T15:27:15.006Z,10.99
2022-11-03T15:30:17.621Z,10.99
2022-11-03T15:33:19.913Z,10.79
2022-11-03T15:36:23.648Z,10.86
2022-11-03T15:39:25.878Z,10.61
2022-11-03T15:42:28.783Z,10.77
2022-11-03T15:45:31.050Z,10.59
2022-11-03T15:48:34.635Z,10.50
2022-11-03T15:51:37.155Z,10.69
2022-11-03T15:54:42.465Z,10.59
2022-11-03T15:57:45.070Z,10.49
2022-11-03T16:00:47.724Z,10.47
2022-11-03T16:03:50.306Z,10.35
2022-11-03T16:07:08.769Z,10.26
2022-11-03T16:10:12.102Z,10.31
2022-11-03T16:13:14.357Z,10.27
2022-11-03T16:16:16.888Z,10.27
2022-11-03T16:19:19.137Z,10.33
2022-11-03T16:22:21.645Z,10.23
2022-11-03T16:25:24.051Z,10.18
2022-11-03T16:28:26.535Z,10.15
2022-11-03T16:31:28.864Z,10.28
2022-11-03T16:34:31.377Z,10.44
2022-11-03T16:37:33.629Z,10.25
2022-11-03T16:40:36.121Z,10.37
2022-11-03T16:43:38.458Z,10.33
2022-11-03T16:46:41.015Z,10.42
2022-11-03T16:49:43.324Z,10.48
2022-11-03T16:52:47.864Z,10.47
2022-11-03T16:55:50.270Z,10.59
2022-11-03T16:58:52.861Z,10.60
2022-11-03T17:01:56.893Z,10.67
2022-11-03T17:04:59.615Z,10.80
2022-11-03T17:08:02.414Z,10.81
2022-11-03T17:11:05.081Z,10.72
2022-11-03T17:14:13.336Z,10.75
2022-11-03T17:17:15.930Z,10.87
2022-11-03T17:20:18.401Z,10.91
2022-11-03T17:23:20.956Z,11.10
2022-11-03T17:26:31.006Z,11.12
2022-11-03T17:29:40.633Z,11.15
2022-11-03T17:32:43.929Z,11.14
2022-11-03T17:35:46.938Z,11.09
2022-11-03T17:38:49.682Z,11.21
2022-11-03T17:41:52.195Z,11.13
2022-11-03T17:44:56.648Z,11.28
2022-11-03T17:47:59.238Z,11.15
2022-11-03T17:51:01.722Z,11.21
2022-11-03T17:54:06.626Z,11.21
2022-11-03T17:57:22.188Z,11.17
2022-11-03T18:00:25.146Z,11.20
2022-11-03T18:03:28.273Z,11.28
2022-11-03T18:06:30.654Z,11.26
2022-11-03T18:09:33.347Z,11.27
2022-11-03T18:12:57.535Z,11.28
2022-11-03T18:16:06.057Z,11.16
2022-11-03T18:19:13.589Z,11.23
2022-11-03T18:22:16.243Z,11.27
2022-11-03T18:25:21.390Z,11.27
2022-11-03T18:28:23.940Z,11.35
2022-11-03T18:31:42.541Z,11.46
2022-11-03T18:34:45.562Z,11.47
2022-11-03T18:37:48.279Z,11.35
2022-11-03T18:40:51.238Z,11.41
2022-11-03T18:43:53.471Z,11.49
2022-11-03T18:46:57.085Z,11.39
2022-11-03T18:49:59.337Z,11.56
2022-11-03T18:53:02.300Z,11.53
2022-11-03T18:56:09.876Z,11.51
2022-11-03T18:59:29.059Z,11.60
2022-11-03T19:02:31.477Z,11.62
2022-11-03T19:05:34.225Z,11.48
2022-11-03T19:08:36.699Z,11.63
2022-11-03T19:11:39.655Z,11.62
2022-11-03T19:14:47.794Z,11.59
2022-11-03T19:17:52.809Z,11.54
2022-11-03T19:20:55.064Z,11.66
2022-11-03T19:23:58.589Z,11.66
2022-11-03T19:27:03.385Z,11.56
2022-11-03T19:30:07.008Z,11.62
2022-11-03T19:33:19.234Z,11.71
2022-11-03T19:36:21.892Z,11.58
2022-11-03T19:39:40.755Z,11.66
2022-11-03T19:42:43.298Z,11.66
2022-11-03T19:45:45.504Z,11.61
2022-11-03T19:48:48.128Z,11.63
2022-11-03T19:51:50.400Z,11.62
2022-11-03T19:54:56.549Z,11.65
2022-11-03T19:58:19.985Z,11.63
2022-11-03T20:01:22.645Z,11.59
2022-11-03T20:04:26.203Z,11.58
2022-11-03T20:07:31.887Z,11.64
2022-11-03T20:10:35.995Z,11.70
2022-11-03T20:13:43.224Z,11.72
2022-11-03T20:16:45.727Z,11.76
2022-11-03T20:19:48.101Z,11.69
2022-11-03T20:22:55.389Z,11.70
2022-11-03T20:25:58.355Z,11.59
2022-11-03T20:29:01.893Z,11.72
2022-11-03T20:32:04.418Z,11.75
2022-11-03T20:35:07.216Z,11.65
2022-11-03T20:38:14.709Z,11.61
2022-11-03T20:41:17.448Z,11.55
2022-11-03T20:44:19.876Z,11.59
2022-11-03T20:47:22.650Z,11.63
2022-11-03T20:50:25.806Z,11.68
2022-11-03T20:53:28.369Z,11.57
2022-11-03T20:56:30.780Z,11.57
2022-11-03T20:59:37.706Z,11.52
2022-11-03T21:02:41.359Z,11.59
2022-11-03T21:05:46.993Z,11.60
2022-11-03T21:08:49.362Z,11.66
2022-11-03T21:11:52.552Z,11.56
2022-11-03T21:15:13.710Z,11.47
2022-11-03T21:18:35.180Z,11.58
2022-11-03T21:21:37.517Z,11.52
2022-11-03T21:24:40.275Z,11.65
2022-11-03T21:27:42.816Z,11.65
2022-11-03T21:30:47.668Z,11.52
2022-11-03T21:33:50.031Z,11.47
2022-11-03T21:36:52.546Z,11.59
2022-11-03T21:39:54.900Z,11.46
2022-11-03T21:43:15.992Z,11.52
2022-11-03T21:46:18.289Z,11.66
2022-11-03T21:49:39.395Z,11.51
2022-11-03T21:52:41.667Z,11.63
2022-11-03T21:55:47.048Z,11.47
2022-11-03T21:58:49.303Z,11.59
2022-11-03T22:01:55.115Z,11.64
2022-11-03T22:04:58.041Z,11.62
2022-11-03T22:08:00.321Z,11.58
2022-11-03T22:11:22.535Z,11.63
2022-11-03T22:14:26.621Z,11.54
2022-11-03T22:17:29.113Z,11.50
2022-11-03T22:20:50.294Z,11.55
2022-11-03T22:24:13.049Z,11.38
2022-11-03T22:27:15.289Z,11.51
2022-11-03T22:30:36.367Z,11.50
2022-11-03T22:33:58.514Z,11.39
2022-11-03T22:37:01.010Z,11.47
2022-11-03T22:40:23.094Z,11.51
2022-11-03T22:43:45.256Z,11.49
2022-11-03T22:46:47.438Z,11.33
2022-11-03T22:49:49.940Z,11.29
2022-11-03T22:52:52.220Z,11.31
2022-11-03T22:55:54.719Z,11.30
2022-11-03T22:58:57.005Z,11.33
2022-11-03T23:01:59.608Z,11.30
2022-11-03T23:05:01.951Z,11.32
2022-11-03T23:08:04.768Z,11.27
2022-11-03T23:11:21.155Z,11.40
2022-11-03T23:14:23.769Z,11.41
2022-11-03T23:17:45.980Z,11.41
2022-11-03T23:21:07.079Z,11.28
2022-11-03T23:24:27.694Z,11.25
2022-11-03T23:27:30.296Z,11.28
2022-11-03T23:30:32.470Z,11.27
2022-11-03T23:33:35.568Z,11.27
2022-11-03T23:36:38.032Z,11.29
2022-11-03T23:39:40.519Z,11.18
2022-11-03T23:42:42.714Z,11.15
2022-11-03T23:46:03.642Z,11.18
2022-11-03T23:49:06.706Z,11.15
2022-11-03T23:52:09.225Z,11.16
2022-11-03T23:55:11.460Z,11.01
2022-11-03T23:58:19.739Z,11.16
